sensor_id;sensor_type;location;lat;lon;timestamp;temperature;humidity
20777;DHT22;10548;47.504;8.248;2023-03-14T00:01:22;10.00;99.90
20777;DHT22;10548;47.504;8.248;2023-03-14T00:03:50;10.10;99.90
20777;DHT22;10548;47.504;8.248;2023-03-14T00:06:18;10.10;99.90
20777;DHT22;10548;47.504;8.248;2023-03-14T00:08:45;10.00;99.90
20777;DHT22;10548;47.504;8.248;2023-03-14T00:11:19;10.20;99.90
20777;DHT22;10548;47.504;8.248;2023-03-14T00:13:52;10.10;99.90
20777;DHT22;10548;47.504;8.248;2023-03-14T00:16:20;10.10;99.90
20777;DHT22;10548;47.504;8.248;2023-03-14T00:18:47;10.10;99.90
20777;DHT22;10548;47.504;8.248;2023-03-14T00:21:15;10.20;99.90
20777;DHT22;10548;47.504;8.248;2023-03-14T00:23:42;10.20;99.90
20777;DHT22;10548;47.504;8.248;2023-03-14T00:26:16;10.20;99.90
20777;DHT22;10548;47.504;8.248;2023-03-14T00:28:43;10.30;99.90
20777;DHT22;10548;47.504;8.248;2023-03-14T00:31:13;10.20;99.90
20777;DHT22;10548;47.504;8.248;2023-03-14T00:33:41;10.10;99.90
20777;DHT22;10548;47.504;8.248;2023-03-14T00:36:14;10.20;99.90
20777;DHT22;10548;47.504;8.248;2023-03-14T00:38:42;10.30;99.90
20777;DHT22;10548;47.504;8.248;2023-03-14T00:41:13;10.20;99.90
20777;DHT22;10548;47.504;8.248;2023-03-14T00:43:41;10.20;99.90
20777;DHT22;10548;47.504;8.248;2023-03-14T00:46:08;10.10;99.90
20777;DHT22;10548;47.504;8.248;2023-03-14T00:48:36;10.10;99.90
20777;DHT22;10548;47.504;8.248;2023-03-14T00:51:04;10.10;99.90
20777;DHT22;10548;47.504;8.248;2023-03-14T00:53:35;10.10;99.90
20777;DHT22;10548;47.504;8.248;2023-03-14T00:56:04;10.00;99.90
20777;DHT22;10548;47.504;8.248;2023-03-14T00:58:31;9.90;99.90
20777;DHT22;10548;47.504;8.248;2023-03-14T01:00:58;9.90;99.90
20777;DHT22;10548;47.504;8.248;2023-03-14T01:03:26;9.90;99.90
20777;DHT22;10548;47.504;8.248;2023-03-14T01:05:53;9.80;99.90
20777;DHT22;10548;47.504;8.248;2023-03-14T01:08:21;9.70;99.90
20777;DHT22;10548;47.504;8.248;2023-03-14T01:10:48;9.80;99.90
20777;DHT22;10548;47.504;8.248;2023-03-14T01:13:15;9.80;99.90
20777;DHT22;10548;47.504;8.248;2023-03-14T01:15:42;9.70;99.90
20777;DHT22;10548;47.504;8.248;2023-03-14T01:18:10;9.70;99.90
20777;DHT22;10548;47.504;8.248;2023-03-14T01:20:37;9.60;99.90
20777;DHT22;10548;47.504;8.248;2023-03-14T01:23:04;9.70;99.90
20777;DHT22;10548;47.504;8.248;2023-03-14T01:25:31;9.60;99.90
20777;DHT22;10548;47.504;8.248;2023-03-14T01:27:59;9.70;99.90
20777;DHT22;10548;47.504;8.248;2023-03-14T01:30:28;9.70;99.90
20777;DHT22;10548;47.504;8.248;2023-03-14T01:32:55;9.70;99.90
20777;DHT22;10548;47.504;8.248;2023-03-14T01:35:22;9.60;99.90
20777;DHT22;10548;47.504;8.248;2023-03-14T01:37:50;9.60;99.90
20777;DHT22;10548;47.504;8.248;2023-03-14T01:44:12;9.60;99.90
20777;DHT22;10548;47.504;8.248;2023-03-14T01:46:44;9.60;99.90
20777;DHT22;10548;47.504;8.248;2023-03-14T01:49:43;9.50;99.90
20777;DHT22;10548;47.504;8.248;2023-03-14T01:52:39;9.50;99.90
20777;DHT22;10548;47.504;8.248;2023-03-14T01:55:14;9.50;99.90
20777;DHT22;10548;47.504;8.248;2023-03-14T01:57:49;9.40;99.90
20777;DHT22;10548;47.504;8.248;2023-03-14T02:00:20;9.40;99.90
20777;DHT22;10548;47.504;8.248;2023-03-14T02:10:11;9.30;99.90
20777;DHT22;10548;47.504;8.248;2023-03-14T02:12:40;9.30;99.90
20777;DHT22;10548;47.504;8.248;2023-03-14T02:15:33;9.20;99.90
20777;DHT22;10548;47.504;8.248;2023-03-14T02:18:10;9.20;99.90
20777;DHT22;10548;47.504;8.248;2023-03-14T02:24:13;9.20;99.90
20777;DHT22;10548;47.504;8.248;2023-03-14T02:27:24;9.10;99.90
20777;DHT22;10548;47.504;8.248;2023-03-14T02:29:54;9.10;99.90
20777;DHT22;10548;47.504;8.248;2023-03-14T02:32:24;9.10;99.90
20777;DHT22;10548;47.504;8.248;2023-03-14T02:35:22;9.10;99.90
20777;DHT22;10548;47.504;8.248;2023-03-14T02:41:13;9.10;99.90
20777;DHT22;10548;47.504;8.248;2023-03-14T02:43:45;9.10;99.90
20777;DHT22;10548;47.504;8.248;2023-03-14T02:46:13;9.10;99.90
20777;DHT22;10548;47.504;8.248;2023-03-14T02:49:00;9.10;99.90
20777;DHT22;10548;47.504;8.248;2023-03-14T02:51:44;9.00;99.90
20777;DHT22;10548;47.504;8.248;2023-03-14T02:54:12;9.10;99.90
20777;DHT22;10548;47.504;8.248;2023-03-14T02:56:41;9.00;99.90
20777;DHT22;10548;47.504;8.248;2023-03-14T02:59:11;9.10;99.90
20777;DHT22;10548;47.504;8.248;2023-03-14T03:01:47;9.10;99.90
20777;DHT22;10548;47.504;8.248;2023-03-14T03:04:14;9.00;99.90
20777;DHT22;10548;47.504;8.248;2023-03-14T03:06:45;9.00;99.90
20777;DHT22;10548;47.504;8.248;2023-03-14T03:09:13;9.00;99.90
20777;DHT22;10548;47.504;8.248;2023-03-14T03:11:40;9.00;99.90
20777;DHT22;10548;47.504;8.248;2023-03-14T03:14:10;9.00;99.90
20777;DHT22;10548;47.504;8.248;2023-03-14T03:16:37;9.10;99.90
20777;DHT22;10548;47.504;8.248;2023-03-14T03:19:05;9.00;99.90
20777;DHT22;10548;47.504;8.248;2023-03-14T03:21:32;9.00;99.90
20777;DHT22;10548;47.504;8.248;2023-03-14T03:23:59;9.10;99.90
20777;DHT22;10548;47.504;8.248;2023-03-14T03:26:26;9.00;99.90
20777;DHT22;10548;47.504;8.248;2023-03-14T03:28:53;9.00;99.90
20777;DHT22;10548;47.504;8.248;2023-03-14T03:31:22;9.00;99.90
20777;DHT22;10548;47.504;8.248;2023-03-14T03:33:49;9.00;99.90
20777;DHT22;10548;47.504;8.248;2023-03-14T03:36:21;8.90;99.90
20777;DHT22;10548;47.504;8.248;2023-03-14T03:39:06;8.80;99.90
20777;DHT22;10548;47.504;8.248;2023-03-14T03:41:34;8.90;99.90
20777;DHT22;10548;47.504;8.248;2023-03-14T03:44:01;9.00;99.90
20777;DHT22;10548;47.504;8.248;2023-03-14T03:46:28;9.00;99.90
20777;DHT22;10548;47.504;8.248;2023-03-14T03:48:59;9.00;99.90
20777;DHT22;10548;47.504;8.248;2023-03-14T03:51:28;9.00;99.90
20777;DHT22;10548;47.504;8.248;2023-03-14T03:53:56;8.90;99.90
20777;DHT22;10548;47.504;8.248;2023-03-14T03:56:33;9.00;99.90
20777;DHT22;10548;47.504;8.248;2023-03-14T03:59:00;8.90;99.90
20777;DHT22;10548;47.504;8.248;2023-03-14T04:01:27;8.80;99.90
20777;DHT22;10548;47.504;8.248;2023-03-14T04:03:57;8.70;99.90
20777;DHT22;10548;47.504;8.248;2023-03-14T04:06:25;8.70;99.90
20777;DHT22;10548;47.504;8.248;2023-03-14T04:08:55;8.60;99.90
20777;DHT22;10548;47.504;8.248;2023-03-14T04:11:43;8.60;99.90
20777;DHT22;10548;47.504;8.248;2023-03-14T04:14:31;8.60;99.90
20777;DHT22;10548;47.504;8.248;2023-03-14T04:17:12;8.50;99.90
20777;DHT22;10548;47.504;8.248;2023-03-14T04:19:39;8.60;99.90
20777;DHT22;10548;47.504;8.248;2023-03-14T04:22:08;8.60;99.90
20777;DHT22;10548;47.504;8.248;2023-03-14T04:24:44;8.60;99.90
20777;DHT22;10548;47.504;8.248;2023-03-14T04:27:11;8.70;99.90
20777;DHT22;10548;47.504;8.248;2023-03-14T04:33:21;8.60;99.90
20777;DHT22;10548;47.504;8.248;2023-03-14T04:35:54;8.60;99.90
20777;DHT22;10548;47.504;8.248;2023-03-14T04:38:22;8.50;99.90
20777;DHT22;10548;47.504;8.248;2023-03-14T04:40:50;8.40;99.90
20777;DHT22;10548;47.504;8.248;2023-03-14T04:43:19;8.40;99.90
20777;DHT22;10548;47.504;8.248;2023-03-14T04:46:00;8.50;99.90
20777;DHT22;10548;47.504;8.248;2023-03-14T04:48:27;8.40;99.90
20777;DHT22;10548;47.504;8.248;2023-03-14T04:50:54;8.40;99.90
20777;DHT22;10548;47.504;8.248;2023-03-14T04:53:22;8.40;99.90
20777;DHT22;10548;47.504;8.248;2023-03-14T04:55:54;8.40;99.90
20777;DHT22;10548;47.504;8.248;2023-03-14T04:58:24;8.30;99.90
20777;DHT22;10548;47.504;8.248;2023-03-14T05:00:53;8.30;99.90
20777;DHT22;10548;47.504;8.248;2023-03-14T05:03:38;8.30;99.90
20777;DHT22;10548;47.504;8.248;2023-03-14T05:06:23;8.30;99.90
20777;DHT22;10548;47.504;8.248;2023-03-14T05:09:08;8.20;99.90
20777;DHT22;10548;47.504;8.248;2023-03-14T05:11:55;8.30;99.90
20777;DHT22;10548;47.504;8.248;2023-03-14T05:14:42;8.40;99.90
20777;DHT22;10548;47.504;8.248;2023-03-14T05:17:35;8.30;99.90
20777;DHT22;10548;47.504;8.248;2023-03-14T05:20:30;8.40;99.90
20777;DHT22;10548;47.504;8.248;2023-03-14T05:23:19;8.30;99.90
20777;DHT22;10548;47.504;8.248;2023-03-14T05:26:05;8.30;99.90
20777;DHT22;10548;47.504;8.248;2023-03-14T05:28:38;8.40;99.90
20777;DHT22;10548;47.504;8.248;2023-03-14T05:31:26;8.50;99.90
20777;DHT22;10548;47.504;8.248;2023-03-14T05:34:13;8.50;99.90
20777;DHT22;10548;47.504;8.248;2023-03-14T05:36:54;8.50;99.90
20777;DHT22;10548;47.504;8.248;2023-03-14T05:39:52;8.50;99.90
20777;DHT22;10548;47.504;8.248;2023-03-14T05:42:51;8.50;99.90
20777;DHT22;10548;47.504;8.248;2023-03-14T05:45:36;8.40;99.90
20777;DHT22;10548;47.504;8.248;2023-03-14T05:48:21;8.40;99.90
20777;DHT22;10548;47.504;8.248;2023-03-14T05:51:01;8.50;99.90
20777;DHT22;10548;47.504;8.248;2023-03-14T05:53:49;8.50;99.90
20777;DHT22;10548;47.504;8.248;2023-03-14T05:56:32;8.40;99.90
20777;DHT22;10548;47.504;8.248;2023-03-14T05:59:28;8.40;99.90
20777;DHT22;10548;47.504;8.248;2023-03-14T06:02:07;8.40;99.90
20777;DHT22;10548;47.504;8.248;2023-03-14T06:04:53;8.50;99.90
20777;DHT22;10548;47.504;8.248;2023-03-14T06:07:20;8.50;99.90
20777;DHT22;10548;47.504;8.248;2023-03-14T06:09:48;8.50;99.90
20777;DHT22;10548;47.504;8.248;2023-03-14T06:12:17;8.50;99.90
20777;DHT22;10548;47.504;8.248;2023-03-14T06:14:45;8.50;99.90
20777;DHT22;10548;47.504;8.248;2023-03-14T06:17:13;8.30;99.90
20777;DHT22;10548;47.504;8.248;2023-03-14T06:19:48;8.30;99.90
20777;DHT22;10548;47.504;8.248;2023-03-14T06:22:15;8.50;99.90
20777;DHT22;10548;47.504;8.248;2023-03-14T06:24:43;8.50;99.90
20777;DHT22;10548;47.504;8.248;2023-03-14T06:27:11;8.50;99.90
20777;DHT22;10548;47.504;8.248;2023-03-14T06:29:38;8.50;99.90
20777;DHT22;10548;47.504;8.248;2023-03-14T06:32:05;8.50;99.90
20777;DHT22;10548;47.504;8.248;2023-03-14T06:34:32;8.50;99.90
20777;DHT22;10548;47.504;8.248;2023-03-14T06:37:00;8.60;99.90
20777;DHT22;10548;47.504;8.248;2023-03-14T06:39:27;8.60;99.90
20777;DHT22;10548;47.504;8.248;2023-03-14T06:42:02;8.60;99.90
20777;DHT22;10548;47.504;8.248;2023-03-14T06:44:30;8.70;99.90
20777;DHT22;10548;47.504;8.248;2023-03-14T06:46:57;8.60;99.90
20777;DHT22;10548;47.504;8.248;2023-03-14T06:49:25;8.60;99.90
20777;DHT22;10548;47.504;8.248;2023-03-14T06:51:54;8.60;99.90
20777;DHT22;10548;47.504;8.248;2023-03-14T06:54:21;8.70;99.90
20777;DHT22;10548;47.504;8.248;2023-03-14T06:56:48;8.70;99.90
20777;DHT22;10548;47.504;8.248;2023-03-14T06:59:16;8.70;99.90
20777;DHT22;10548;47.504;8.248;2023-03-14T07:01:46;8.90;99.90
20777;DHT22;10548;47.504;8.248;2023-03-14T07:04:15;9.00;99.90
20777;DHT22;10548;47.504;8.248;2023-03-14T07:06:45;9.00;99.90
20777;DHT22;10548;47.504;8.248;2023-03-14T07:09:14;9.10;99.90
20777;DHT22;10548;47.504;8.248;2023-03-14T07:11:47;9.10;99.90
20777;DHT22;10548;47.504;8.248;2023-03-14T07:14:16;9.20;99.90
20777;DHT22;10548;47.504;8.248;2023-03-14T07:16:45;9.30;99.90
20777;DHT22;10548;47.504;8.248;2023-03-14T07:19:12;9.30;99.90
20777;DHT22;10548;47.504;8.248;2023-03-14T07:21:39;9.40;99.90
20777;DHT22;10548;47.504;8.248;2023-03-14T07:24:10;9.50;99.90
20777;DHT22;10548;47.504;8.248;2023-03-14T07:26:37;9.50;99.90
20777;DHT22;10548;47.504;8.248;2023-03-14T07:29:05;9.40;99.90
20777;DHT22;10548;47.504;8.248;2023-03-14T07:31:32;9.40;99.90
20777;DHT22;10548;47.504;8.248;2023-03-14T07:34:01;9.40;99.90
20777;DHT22;10548;47.504;8.248;2023-03-14T07:36:33;9.60;99.90
20777;DHT22;10548;47.504;8.248;2023-03-14T07:39:00;9.70;99.90
20777;DHT22;10548;47.504;8.248;2023-03-14T07:41:48;9.70;99.90
20777;DHT22;10548;47.504;8.248;2023-03-14T07:44:33;9.80;99.90
20777;DHT22;10548;47.504;8.248;2023-03-14T07:47:00;9.90;99.90
20777;DHT22;10548;47.504;8.248;2023-03-14T07:49:27;10.10;99.90
20777;DHT22;10548;47.504;8.248;2023-03-14T07:51:54;10.00;99.90
20777;DHT22;10548;47.504;8.248;2023-03-14T07:54:21;10.00;99.90
20777;DHT22;10548;47.504;8.248;2023-03-14T07:56:49;9.90;99.90
20777;DHT22;10548;47.504;8.248;2023-03-14T07:59:16;9.90;99.90
20777;DHT22;10548;47.504;8.248;2023-03-14T08:01:43;10.00;99.90
20777;DHT22;10548;47.504;8.248;2023-03-14T08:04:11;10.00;99.90
20777;DHT22;10548;47.504;8.248;2023-03-14T08:06:38;10.10;99.90
20777;DHT22;10548;47.504;8.248;2023-03-14T08:09:05;10.20;99.90
20777;DHT22;10548;47.504;8.248;2023-03-14T08:11:32;10.20;99.90
20777;DHT22;10548;47.504;8.248;2023-03-14T08:13:59;10.20;99.90
20777;DHT22;10548;47.504;8.248;2023-03-14T08:16:26;10.10;99.90
20777;DHT22;10548;47.504;8.248;2023-03-14T08:18:53;10.10;99.90
20777;DHT22;10548;47.504;8.248;2023-03-14T08:21:21;10.20;99.90
20777;DHT22;10548;47.504;8.248;2023-03-14T08:23:48;10.20;99.90
20777;DHT22;10548;47.504;8.248;2023-03-14T08:26:15;10.30;99.90
20777;DHT22;10548;47.504;8.248;2023-03-14T08:28:42;10.30;99.90
20777;DHT22;10548;47.504;8.248;2023-03-14T08:31:09;10.30;99.90
20777;DHT22;10548;47.504;8.248;2023-03-14T08:33:36;10.30;99.90
20777;DHT22;10548;47.504;8.248;2023-03-14T08:36:04;10.20;99.90
20777;DHT22;10548;47.504;8.248;2023-03-14T08:38:31;10.20;99.90
20777;DHT22;10548;47.504;8.248;2023-03-14T08:40:59;10.10;99.90
20777;DHT22;10548;47.504;8.248;2023-03-14T08:43:28;10.10;99.90
20777;DHT22;10548;47.504;8.248;2023-03-14T08:45:59;10.10;99.90
20777;DHT22;10548;47.504;8.248;2023-03-14T08:48:27;10.10;99.90
20777;DHT22;10548;47.504;8.248;2023-03-14T08:50:57;10.20;99.90
20777;DHT22;10548;47.504;8.248;2023-03-14T08:53:30;10.20;99.90
20777;DHT22;10548;47.504;8.248;2023-03-14T08:55:57;10.20;99.90
20777;DHT22;10548;47.504;8.248;2023-03-14T08:58:24;10.30;99.90
20777;DHT22;10548;47.504;8.248;2023-03-14T09:00:52;10.40;99.90
20777;DHT22;10548;47.504;8.248;2023-03-14T09:03:19;10.40;99.90
20777;DHT22;10548;47.504;8.248;2023-03-14T09:05:46;10.40;99.90
20777;DHT22;10548;47.504;8.248;2023-03-14T09:08:13;10.30;99.60
20777;DHT22;10548;47.504;8.248;2023-03-14T09:10:40;10.30;99.50
20777;DHT22;10548;47.504;8.248;2023-03-14T09:13:07;10.40;99.90
20777;DHT22;10548;47.504;8.248;2023-03-14T09:15:34;10.40;99.10
20777;DHT22;10548;47.504;8.248;2023-03-14T09:18:02;10.40;99.80
20777;DHT22;10548;47.504;8.248;2023-03-14T09:20:29;10.30;99.10
20777;DHT22;10548;47.504;8.248;2023-03-14T09:22:56;10.30;99.60
20777;DHT22;10548;47.504;8.248;2023-03-14T09:25:23;10.20;99.10
20777;DHT22;10548;47.504;8.248;2023-03-14T09:27:50;10.20;99.90
20777;DHT22;10548;47.504;8.248;2023-03-14T09:30:17;10.20;99.90
20777;DHT22;10548;47.504;8.248;2023-03-14T09:32:44;10.20;99.90
20777;DHT22;10548;47.504;8.248;2023-03-14T09:35:12;10.20;99.80
20777;DHT22;10548;47.504;8.248;2023-03-14T09:37:39;10.10;99.90
20777;DHT22;10548;47.504;8.248;2023-03-14T09:40:09;10.00;99.90
20777;DHT22;10548;47.504;8.248;2023-03-14T09:42:38;10.00;99.90
20777;DHT22;10548;47.504;8.248;2023-03-14T09:45:13;9.80;99.90
20777;DHT22;10548;47.504;8.248;2023-03-14T09:47:43;9.80;99.90
20777;DHT22;10548;47.504;8.248;2023-03-14T09:50:27;9.70;99.90
20777;DHT22;10548;47.504;8.248;2023-03-14T09:53:03;9.60;99.90
20777;DHT22;10548;47.504;8.248;2023-03-14T09:55:32;9.60;99.90
20777;DHT22;10548;47.504;8.248;2023-03-14T09:58:09;9.50;99.90
20777;DHT22;10548;47.504;8.248;2023-03-14T10:00:38;9.50;99.90
20777;DHT22;10548;47.504;8.248;2023-03-14T10:03:34;9.40;99.90
20777;DHT22;10548;47.504;8.248;2023-03-14T10:06:02;9.30;99.90
20777;DHT22;10548;47.504;8.248;2023-03-14T10:08:31;9.10;99.90
20777;DHT22;10548;47.504;8.248;2023-03-14T10:10:58;9.10;99.90
20777;DHT22;10548;47.504;8.248;2023-03-14T10:13:27;9.00;99.90
20777;DHT22;10548;47.504;8.248;2023-03-14T10:16:01;9.00;99.90
20777;DHT22;10548;47.504;8.248;2023-03-14T10:18:30;9.00;99.90
20777;DHT22;10548;47.504;8.248;2023-03-14T10:21:27;9.00;99.90
20777;DHT22;10548;47.504;8.248;2023-03-14T10:23:53;9.00;99.90
20777;DHT22;10548;47.504;8.248;2023-03-14T10:26:27;8.90;99.90
20777;DHT22;10548;47.504;8.248;2023-03-14T10:29:03;8.90;99.90
20777;DHT22;10548;47.504;8.248;2023-03-14T10:31:56;9.00;99.90
20777;DHT22;10548;47.504;8.248;2023-03-14T10:34:30;8.90;99.90
20777;DHT22;10548;47.504;8.248;2023-03-14T10:37:04;9.00;99.90
20777;DHT22;10548;47.504;8.248;2023-03-14T10:39:46;9.00;99.90
20777;DHT22;10548;47.504;8.248;2023-03-14T10:42:25;9.00;99.90
20777;DHT22;10548;47.504;8.248;2023-03-14T10:44:59;8.90;99.90
20777;DHT22;10548;47.504;8.248;2023-03-14T10:47:28;8.90;99.90
20777;DHT22;10548;47.504;8.248;2023-03-14T10:49:56;8.80;99.90
20777;DHT22;10548;47.504;8.248;2023-03-14T10:52:26;8.70;99.90
20777;DHT22;10548;47.504;8.248;2023-03-14T10:55:14;8.60;99.90
20777;DHT22;10548;47.504;8.248;2023-03-14T10:57:43;8.50;99.90
20777;DHT22;10548;47.504;8.248;2023-03-14T11:00:22;8.50;99.90
20777;DHT22;10548;47.504;8.248;2023-03-14T11:03:10;8.40;99.90
20777;DHT22;10548;47.504;8.248;2023-03-14T11:09:36;8.20;99.90
20777;DHT22;10548;47.504;8.248;2023-03-14T11:15:34;8.00;99.90
20777;DHT22;10548;47.504;8.248;2023-03-14T11:18:36;7.80;99.90
20777;DHT22;10548;47.504;8.248;2023-03-14T11:21:23;7.80;99.90
20777;DHT22;10548;47.504;8.248;2023-03-14T11:27:13;7.60;99.90
20777;DHT22;10548;47.504;8.248;2023-03-14T11:30:18;7.60;99.90
20777;DHT22;10548;47.504;8.248;2023-03-14T11:33:14;7.60;99.90
20777;DHT22;10548;47.504;8.248;2023-03-14T11:36:07;7.60;99.90
20777;DHT22;10548;47.504;8.248;2023-03-14T11:38:52;7.60;99.90
20777;DHT22;10548;47.504;8.248;2023-03-14T11:42:00;7.60;99.90
20777;DHT22;10548;47.504;8.248;2023-03-14T11:44:37;7.60;99.90
20777;DHT22;10548;47.504;8.248;2023-03-14T11:47:32;7.60;99.90
20777;DHT22;10548;47.504;8.248;2023-03-14T11:50:24;7.60;99.90
20777;DHT22;10548;47.504;8.248;2023-03-14T11:56:12;7.60;99.90
20777;DHT22;10548;47.504;8.248;2023-03-14T11:58:50;7.60;99.90
20777;DHT22;10548;47.504;8.248;2023-03-14T12:01:20;7.50;99.90
20777;DHT22;10548;47.504;8.248;2023-03-14T12:03:58;7.50;99.90
20777;DHT22;10548;47.504;8.248;2023-03-14T12:09:18;7.50;99.90
20777;DHT22;10548;47.504;8.248;2023-03-14T12:11:52;7.60;99.90
20777;DHT22;10548;47.504;8.248;2023-03-14T12:14:32;7.80;99.90
20777;DHT22;10548;47.504;8.248;2023-03-14T12:17:36;7.90;99.90
20777;DHT22;10548;47.504;8.248;2023-03-14T12:20:19;8.40;99.90
20777;DHT22;10548;47.504;8.248;2023-03-14T12:22:50;8.60;99.90
20777;DHT22;10548;47.504;8.248;2023-03-14T12:25:21;8.70;99.90
20777;DHT22;10548;47.504;8.248;2023-03-14T17:04:26;7.90;99.90
20777;DHT22;10548;47.504;8.248;2023-03-14T17:06:53;7.80;99.90
20777;DHT22;10548;47.504;8.248;2023-03-14T17:09:21;7.70;99.90
20777;DHT22;10548;47.504;8.248;2023-03-14T17:11:48;7.20;99.90
20777;DHT22;10548;47.504;8.248;2023-03-14T17:14:15;7.00;99.90
20777;DHT22;10548;47.504;8.248;2023-03-14T17:16:42;7.00;99.90
20777;DHT22;10548;47.504;8.248;2023-03-14T17:19:09;7.00;99.90
20777;DHT22;10548;47.504;8.248;2023-03-14T17:21:36;7.00;99.90
20777;DHT22;10548;47.504;8.248;2023-03-14T17:24:03;7.00;99.90
20777;DHT22;10548;47.504;8.248;2023-03-14T17:26:31;7.00;99.90
20777;DHT22;10548;47.504;8.248;2023-03-14T17:28:58;6.90;99.90
20777;DHT22;10548;47.504;8.248;2023-03-14T17:31:25;6.80;99.90
20777;DHT22;10548;47.504;8.248;2023-03-14T17:33:52;6.80;99.90
20777;DHT22;10548;47.504;8.248;2023-03-14T17:36:21;6.90;99.90
20777;DHT22;10548;47.504;8.248;2023-03-14T17:38:54;7.00;99.90
20777;DHT22;10548;47.504;8.248;2023-03-14T17:41:24;7.00;99.90
20777;DHT22;10548;47.504;8.248;2023-03-14T17:43:51;6.90;99.90
20777;DHT22;10548;47.504;8.248;2023-03-14T17:46:18;6.80;99.90
20777;DHT22;10548;47.504;8.248;2023-03-14T17:48:47;6.80;99.90
20777;DHT22;10548;47.504;8.248;2023-03-14T17:51:15;6.80;99.90
20777;DHT22;10548;47.504;8.248;2023-03-14T17:53:42;6.70;99.90
20777;DHT22;10548;47.504;8.248;2023-03-14T17:56:09;6.60;99.90
20777;DHT22;10548;47.504;8.248;2023-03-14T17:58:37;6.50;99.90
20777;DHT22;10548;47.504;8.248;2023-03-14T18:01:13;6.50;99.90
20777;DHT22;10548;47.504;8.248;2023-03-14T18:03:41;6.40;99.90
20777;DHT22;10548;47.504;8.248;2023-03-14T18:06:09;6.40;99.90
20777;DHT22;10548;47.504;8.248;2023-03-14T18:08:37;6.50;99.90
20777;DHT22;10548;47.504;8.248;2023-03-14T18:11:06;6.50;99.90
20777;DHT22;10548;47.504;8.248;2023-03-14T18:13:33;6.60;99.90
20777;DHT22;10548;47.504;8.248;2023-03-14T18:16:04;6.60;99.90
20777;DHT22;10548;47.504;8.248;2023-03-14T18:18:33;6.60;99.90
20777;DHT22;10548;47.504;8.248;2023-03-14T18:21:00;6.60;99.90
20777;DHT22;10548;47.504;8.248;2023-03-14T18:23:27;6.60;99.90
20777;DHT22;10548;47.504;8.248;2023-03-14T18:25:56;6.60;99.90
20777;DHT22;10548;47.504;8.248;2023-03-14T18:28:24;6.60;99.90
20777;DHT22;10548;47.504;8.248;2023-03-14T18:30:51;6.70;99.90
20777;DHT22;10548;47.504;8.248;2023-03-14T18:33:22;6.80;99.90
20777;DHT22;10548;47.504;8.248;2023-03-14T18:35:49;6.90;99.90
20777;DHT22;10548;47.504;8.248;2023-03-14T18:38:19;6.90;99.90
20777;DHT22;10548;47.504;8.248;2023-03-14T18:40:46;6.90;99.90
20777;DHT22;10548;47.504;8.248;2023-03-14T18:43:14;7.00;99.90
20777;DHT22;10548;47.504;8.248;2023-03-14T18:45:41;7.10;99.90
20777;DHT22;10548;47.504;8.248;2023-03-14T18:48:08;7.00;99.90
20777;DHT22;10548;47.504;8.248;2023-03-14T18:50:35;7.10;99.90
20777;DHT22;10548;47.504;8.248;2023-03-14T18:53:02;7.10;99.90
20777;DHT22;10548;47.504;8.248;2023-03-14T18:55:30;7.10;99.90
20777;DHT22;10548;47.504;8.248;2023-03-14T18:57:57;6.90;99.90
20777;DHT22;10548;47.504;8.248;2023-03-14T19:00:24;7.00;99.90
20777;DHT22;10548;47.504;8.248;2023-03-14T19:02:54;7.10;99.90
20777;DHT22;10548;47.504;8.248;2023-03-14T19:05:21;7.00;99.90
20777;DHT22;10548;47.504;8.248;2023-03-14T19:07:48;7.20;99.90
20777;DHT22;10548;47.504;8.248;2023-03-14T19:10:15;7.20;99.90
20777;DHT22;10548;47.504;8.248;2023-03-14T19:12:43;7.10;99.90
20777;DHT22;10548;47.504;8.248;2023-03-14T19:15:10;7.00;99.90
20777;DHT22;10548;47.504;8.248;2023-03-14T19:17:41;6.90;99.90
20777;DHT22;10548;47.504;8.248;2023-03-14T19:20:09;6.90;99.90
20777;DHT22;10548;47.504;8.248;2023-03-14T19:22:42;6.80;99.90
20777;DHT22;10548;47.504;8.248;2023-03-14T19:25:09;6.80;99.90
20777;DHT22;10548;47.504;8.248;2023-03-14T19:27:36;6.70;99.90
20777;DHT22;10548;47.504;8.248;2023-03-14T19:30:05;6.70;99.90
20777;DHT22;10548;47.504;8.248;2023-03-14T19:32:33;6.80;99.90
20777;DHT22;10548;47.504;8.248;2023-03-14T19:35:00;6.90;99.90
20777;DHT22;10548;47.504;8.248;2023-03-14T19:37:27;6.90;99.90
20777;DHT22;10548;47.504;8.248;2023-03-14T19:39:54;6.80;99.90
20777;DHT22;10548;47.504;8.248;2023-03-14T19:42:21;7.00;99.90
20777;DHT22;10548;47.504;8.248;2023-03-14T19:44:48;7.00;99.90
20777;DHT22;10548;47.504;8.248;2023-03-14T19:47:18;7.00;99.90
20777;DHT22;10548;47.504;8.248;2023-03-14T19:49:50;6.90;99.90
20777;DHT22;10548;47.504;8.248;2023-03-14T19:52:21;6.80;99.90
20777;DHT22;10548;47.504;8.248;2023-03-14T19:54:52;6.80;99.90
20777;DHT22;10548;47.504;8.248;2023-03-14T19:57:20;6.70;99.90
20777;DHT22;10548;47.504;8.248;2023-03-14T19:59:47;6.70;99.90
20777;DHT22;10548;47.504;8.248;2023-03-14T20:02:15;6.70;99.90
20777;DHT22;10548;47.504;8.248;2023-03-14T20:04:43;6.80;99.90
20777;DHT22;10548;47.504;8.248;2023-03-14T20:07:12;6.60;99.90
20777;DHT22;10548;47.504;8.248;2023-03-14T20:09:40;6.50;99.90
20777;DHT22;10548;47.504;8.248;2023-03-14T20:12:08;6.50;99.90
20777;DHT22;10548;47.504;8.248;2023-03-14T20:14:35;6.50;99.90
20777;DHT22;10548;47.504;8.248;2023-03-14T20:17:02;6.60;99.90
20777;DHT22;10548;47.504;8.248;2023-03-14T20:19:30;6.50;99.90
20777;DHT22;10548;47.504;8.248;2023-03-14T20:21:57;6.50;99.90
20777;DHT22;10548;47.504;8.248;2023-03-14T20:24:26;6.50;99.90
20777;DHT22;10548;47.504;8.248;2023-03-14T20:26:53;6.50;99.90
20777;DHT22;10548;47.504;8.248;2023-03-14T20:29:20;6.50;99.90
20777;DHT22;10548;47.504;8.248;2023-03-14T20:31:50;6.50;99.90
20777;DHT22;10548;47.504;8.248;2023-03-14T20:34:17;6.50;99.90
20777;DHT22;10548;47.504;8.248;2023-03-14T20:36:44;6.50;99.90
20777;DHT22;10548;47.504;8.248;2023-03-14T20:39:13;6.60;99.90
20777;DHT22;10548;47.504;8.248;2023-03-14T20:41:41;6.50;99.90
20777;DHT22;10548;47.504;8.248;2023-03-14T20:44:08;6.50;99.90
20777;DHT22;10548;47.504;8.248;2023-03-14T20:46:39;6.50;99.90
20777;DHT22;10548;47.504;8.248;2023-03-14T20:49:07;6.50;99.90
20777;DHT22;10548;47.504;8.248;2023-03-14T20:51:34;6.50;99.90
20777;DHT22;10548;47.504;8.248;2023-03-14T20:54:03;6.50;99.90
20777;DHT22;10548;47.504;8.248;2023-03-14T20:56:31;6.50;99.90
20777;DHT22;10548;47.504;8.248;2023-03-14T20:58:58;6.50;99.90
20777;DHT22;10548;47.504;8.248;2023-03-14T21:01:25;6.50;99.90
20777;DHT22;10548;47.504;8.248;2023-03-14T21:04:10;6.50;99.90
20777;DHT22;10548;47.504;8.248;2023-03-14T21:06:37;6.50;99.90
20777;DHT22;10548;47.504;8.248;2023-03-14T21:09:04;6.50;99.90
20777;DHT22;10548;47.504;8.248;2023-03-14T21:11:31;6.40;99.90
20777;DHT22;10548;47.504;8.248;2023-03-14T21:14:03;6.50;99.90
20777;DHT22;10548;47.504;8.248;2023-03-14T21:16:30;6.50;99.90
20777;DHT22;10548;47.504;8.248;2023-03-14T21:18:57;6.50;99.90
20777;DHT22;10548;47.504;8.248;2023-03-14T21:21:24;6.50;99.90
20777;DHT22;10548;47.504;8.248;2023-03-14T21:23:51;6.50;99.90
20777;DHT22;10548;47.504;8.248;2023-03-14T21:26:20;6.40;99.90